Terminal Aerodrome Forecast
Issued by NWS Sioux Falls, SD

Home | Current Version | Previous Version | Text Only | Print | Product List | Glossary Off
Versions: 1 2 3 4 5 6 7 8 9 10 11 12 13 14 15 16 17 18

000
FTUS43 KFSD 241408 AAA
TAFHON
TAF AMD
KHON 241408Z 2414/2512 15015G25KT 5SM BR OVC100
     FM241500 16014G23KT 5SM -RA BR OVC020
     FM242000 16012G19KT P6SM BKN025
     FM242300 16008KT P6SM SCT025
     FM251000 30014KT P6SM BKN025=

USA.gov is the U.S. government's official web portal to all federal, state and local government web resources and services.